Overview Statistics Trail Chart Weather Telemetry Raw packets
 

This is the latest recevied weather packets stored in our database for station/object 9A7DI-13. If no packets are shown the sender has not sent any weather packets the latest 10 day(s).

<< 35 36 37 38 39 40 41 >>
Time Temp. Humidity Pressure Rain* Wind** Luminosity Snow
1788131809 17.78° C 79% 1023.9 hPa - - - -
1788131210 18.33° C 79% 1023.9 hPa - - - -
1788130610 18.33° C 77% 1023.9 hPa - - - -
1788130010 18.33° C 78% 1023.9 hPa - - - -
1788129410 18.89° C 77% 1024 hPa - - - -
1788128810 18.33° C 78% 1024 hPa - - - -
1788128210 18.33° C 77% 1024 hPa - - - -
1788127610 18.89° C 77% 1024 hPa - - - -
1788127010 18.89° C 76% 1024 hPa - - - -
1788126410 18.89° C 76% 1024 hPa - - - -
1788125810 19.44° C 74% 1024 hPa - - - -
1788125210 18.89° C 74% 1024.1 hPa - - - -
1788124610 20° C 70% 1024.1 hPa - - - -
1788124010 20° C 72% 1024.1 hPa - - - -
1788123410 20° C 70% 1024.1 hPa - - - -
1788122810 20.56° C 68% 1024 hPa - - - -
1788122210 20° C 69% 1024.1 hPa - - - -
1788121610 20° C 69% 1024.1 hPa - - - -
1788121010 20.56° C 68% 1024.1 hPa - - - -
1788120410 20.56° C 66% 1024 hPa - - - -
1788119810 21.11° C 65% 1024 hPa - - - -
1788119210 21.67° C 64% 1024 hPa - - - -
1788118610 21.67° C 65% 1024 hPa - - - -
1788118010 21.67° C 65% 1024 hPa - - - -
1788117410 21.67° C 64% 1024 hPa - - - -

* Rain since midnight (hover to see other rain measurements)
** Current wind speed in m/s (hover to see current wind gust speed)